sensor_id;sensor_type;location;lat;lon;timestamp;pressure;altitude;pressure_sealevel;temperature;humidity
21817;BME280;13247;47.504;7.382;2023-05-12T00:01:45;97054.56;;;11.50;100.00
21817;BME280;13247;47.504;7.382;2023-05-12T00:04:29;97048.25;;;11.54;100.00
21817;BME280;13247;47.504;7.382;2023-05-12T00:07:14;97042.47;;;11.68;100.00
21817;BME280;13247;47.504;7.382;2023-05-12T00:09:59;97038.94;;;11.69;100.00
21817;BME280;13247;47.504;7.382;2023-05-12T00:12:44;97039.16;;;11.63;100.00
21817;BME280;13247;47.504;7.382;2023-05-12T00:15:29;97037.72;;;11.77;100.00
21817;BME280;13247;47.504;7.382;2023-05-12T00:18:13;97033.59;;;11.72;100.00
21817;BME280;13247;47.504;7.382;2023-05-12T00:20:58;97040.47;;;11.74;100.00
21817;BME280;13247;47.504;7.382;2023-05-12T00:23:42;97038.75;;;11.73;100.00
21817;BME280;13247;47.504;7.382;2023-05-12T00:26:27;97037.72;;;11.77;100.00
21817;BME280;13247;47.504;7.382;2023-05-12T00:29:12;97037.47;;;11.83;100.00
21817;BME280;13247;47.504;7.382;2023-05-12T00:31:56;97034.03;;;11.81;100.00
21817;BME280;13247;47.504;7.382;2023-05-12T00:34:41;97036.13;;;11.73;100.00
21817;BME280;13247;47.504;7.382;2023-05-12T00:37:26;97032.38;;;11.57;100.00
21817;BME280;13247;47.504;7.382;2023-05-12T00:40:12;97032.25;;;11.60;100.00
21817;BME280;13247;47.504;7.382;2023-05-12T00:42:56;97028.75;;;11.60;100.00
21817;BME280;13247;47.504;7.382;2023-05-12T00:45:42;97030.34;;;11.64;100.00
21817;BME280;13247;47.504;7.382;2023-05-12T00:48:27;97021.34;;;11.71;100.00
21817;BME280;13247;47.504;7.382;2023-05-12T00:51:12;97016.88;;;11.73;100.00
21817;BME280;13247;47.504;7.382;2023-05-12T00:53:59;97017.81;;;11.72;100.00
21817;BME280;13247;47.504;7.382;2023-05-12T00:56:44;97012.19;;;11.59;100.00
21817;BME280;13247;47.504;7.382;2023-05-12T00:59:28;97022.41;;;11.67;100.00
21817;BME280;13247;47.504;7.382;2023-05-12T01:02:13;97018.00;;;11.67;100.00
21817;BME280;13247;47.504;7.382;2023-05-12T01:04:58;97013.47;;;11.71;100.00
21817;BME280;13247;47.504;7.382;2023-05-12T01:07:44;97014.78;;;11.81;100.00
21817;BME280;13247;47.504;7.382;2023-05-12T01:10:29;97012.69;;;11.69;100.00
21817;BME280;13247;47.504;7.382;2023-05-12T01:13:14;97012.69;;;11.69;100.00
21817;BME280;13247;47.504;7.382;2023-05-12T01:16:00;97011.81;;;11.68;100.00
21817;BME280;13247;47.504;7.382;2023-05-12T01:18:46;97018.59;;;11.74;100.00
21817;BME280;13247;47.504;7.382;2023-05-12T01:21:36;97013.28;;;11.75;100.00
21817;BME280;13247;47.504;7.382;2023-05-12T01:24:24;97017.97;;;11.46;100.00
21817;BME280;13247;47.504;7.382;2023-05-12T01:27:12;97022.84;;;11.33;100.00
21817;BME280;13247;47.504;7.382;2023-05-12T01:29:59;97025.75;;;11.26;100.00
21817;BME280;13247;47.504;7.382;2023-05-12T01:32:44;97020.34;;;11.30;100.00
21817;BME280;13247;47.504;7.382;2023-05-12T01:35:29;97012.88;;;11.20;100.00
21817;BME280;13247;47.504;7.382;2023-05-12T01:38:14;97019.13;;;11.17;100.00
21817;BME280;13247;47.504;7.382;2023-05-12T01:40:58;97014.22;;;11.08;100.00
21817;BME280;13247;47.504;7.382;2023-05-12T01:43:43;97017.63;;;11.10;100.00
21817;BME280;13247;47.504;7.382;2023-05-12T01:46:27;97016.72;;;11.11;100.00
21817;BME280;13247;47.504;7.382;2023-05-12T01:49:12;97016.91;;;11.28;100.00
21817;BME280;13247;47.504;7.382;2023-05-12T01:51:57;97014.53;;;11.22;100.00
21817;BME280;13247;47.504;7.382;2023-05-12T01:54:41;97012.41;;;11.10;100.00
21817;BME280;13247;47.504;7.382;2023-05-12T01:57:26;97009.09;;;10.82;100.00
21817;BME280;13247;47.504;7.382;2023-05-12T02:00:11;97019.66;;;10.80;100.00
21817;BME280;13247;47.504;7.382;2023-05-12T02:02:56;97016.63;;;10.91;100.00
21817;BME280;13247;47.504;7.382;2023-05-12T02:05:41;97019.00;;;10.97;100.00
21817;BME280;13247;47.504;7.382;2023-05-12T02:08:25;97017.50;;;10.91;100.00
21817;BME280;13247;47.504;7.382;2023-05-12T02:11:10;97011.84;;;11.02;100.00
21817;BME280;13247;47.504;7.382;2023-05-12T02:13:54;97012.88;;;10.98;100.00
21817;BME280;13247;47.504;7.382;2023-05-12T02:16:39;97010.59;;;10.89;100.00
21817;BME280;13247;47.504;7.382;2023-05-12T02:19:24;97020.53;;;10.56;100.00
21817;BME280;13247;47.504;7.382;2023-05-12T02:22:09;97023.13;;;10.33;100.00
21817;BME280;13247;47.504;7.382;2023-05-12T02:24:53;97020.41;;;10.36;100.00
21817;BME280;13247;47.504;7.382;2023-05-12T02:27:39;97023.63;;;10.44;100.00
21817;BME280;13247;47.504;7.382;2023-05-12T02:30:23;97025.50;;;10.41;100.00
21817;BME280;13247;47.504;7.382;2023-05-12T02:33:08;97026.63;;;10.34;100.00
21817;BME280;13247;47.504;7.382;2023-05-12T02:35:52;97026.94;;;10.49;100.00
21817;BME280;13247;47.504;7.382;2023-05-12T02:38:37;97019.50;;;10.60;100.00
21817;BME280;13247;47.504;7.382;2023-05-12T02:41:24;97019.41;;;10.63;100.00
21817;BME280;13247;47.504;7.382;2023-05-12T02:44:08;97022.53;;;10.73;100.00
21817;BME280;13247;47.504;7.382;2023-05-12T02:46:53;97020.69;;;10.76;100.00
21817;BME280;13247;47.504;7.382;2023-05-12T02:49:37;97021.41;;;10.80;100.00
21817;BME280;13247;47.504;7.382;2023-05-12T02:52:22;97020.13;;;10.91;100.00
21817;BME280;13247;47.504;7.382;2023-05-12T02:55:07;97023.69;;;10.89;100.00
21817;BME280;13247;47.504;7.382;2023-05-12T02:57:52;97014.56;;;10.99;100.00
21817;BME280;13247;47.504;7.382;2023-05-12T03:00:37;97018.91;;;11.00;100.00
21817;BME280;13247;47.504;7.382;2023-05-12T03:03:21;97014.69;;;10.96;100.00
21817;BME280;13247;47.504;7.382;2023-05-12T03:06:06;97017.28;;;11.19;100.00
21817;BME280;13247;47.504;7.382;2023-05-12T03:08:51;97015.09;;;10.85;100.00
21817;BME280;13247;47.504;7.382;2023-05-12T03:11:37;97015.53;;;10.50;100.00
21817;BME280;13247;47.504;7.382;2023-05-12T03:14:22;97013.72;;;10.75;100.00
21817;BME280;13247;47.504;7.382;2023-05-12T03:17:06;97012.41;;;10.87;100.00
21817;BME280;13247;47.504;7.382;2023-05-12T03:19:51;97019.19;;;10.92;100.00
21817;BME280;13247;47.504;7.382;2023-05-12T03:22:36;97020.31;;;10.62;100.00
21817;BME280;13247;47.504;7.382;2023-05-12T03:25:21;97021.25;;;10.84;100.00
21817;BME280;13247;47.504;7.382;2023-05-12T03:28:08;97015.09;;;11.09;100.00
21817;BME280;13247;47.504;7.382;2023-05-12T03:30:53;97012.16;;;11.16;100.00
21817;BME280;13247;47.504;7.382;2023-05-12T03:33:38;97014.31;;;11.05;100.00
21817;BME280;13247;47.504;7.382;2023-05-12T03:36:23;97016.91;;;11.07;100.00
21817;BME280;13247;47.504;7.382;2023-05-12T03:39:07;97010.25;;;11.20;100.00
21817;BME280;13247;47.504;7.382;2023-05-12T03:41:53;97013.31;;;11.31;100.00
21817;BME280;13247;47.504;7.382;2023-05-12T03:44:37;97015.94;;;11.31;100.00
21817;BME280;13247;47.504;7.382;2023-05-12T03:47:22;97016.81;;;11.31;100.00
21817;BME280;13247;47.504;7.382;2023-05-12T03:50:07;97009.03;;;11.28;100.00
21817;BME280;13247;47.504;7.382;2023-05-12T03:52:52;97006.81;;;11.19;100.00
21817;BME280;13247;47.504;7.382;2023-05-12T03:55:39;97006.06;;;11.37;100.00
21817;BME280;13247;47.504;7.382;2023-05-12T03:58:24;97010.06;;;11.24;100.00
21817;BME280;13247;47.504;7.382;2023-05-12T04:01:09;97005.16;;;11.17;100.00
21817;BME280;13247;47.504;7.382;2023-05-12T04:03:54;96999.34;;;11.30;100.00
21817;BME280;13247;47.504;7.382;2023-05-12T04:06:39;96998.09;;;11.40;100.00
21817;BME280;13247;47.504;7.382;2023-05-12T04:09:23;96995.19;;;11.46;100.00
21817;BME280;13247;47.504;7.382;2023-05-12T04:12:08;97000.00;;;11.14;100.00
21817;BME280;13247;47.504;7.382;2023-05-12T04:14:53;97000.03;;;10.90;100.00
21817;BME280;13247;47.504;7.382;2023-05-12T04:17:37;97002.03;;;10.84;100.00
21817;BME280;13247;47.504;7.382;2023-05-12T04:20:22;96998.97;;;10.96;100.00
21817;BME280;13247;47.504;7.382;2023-05-12T04:23:07;96998.44;;;10.86;100.00
21817;BME280;13247;47.504;7.382;2023-05-12T04:25:52;97002.69;;;11.12;100.00
21817;BME280;13247;47.504;7.382;2023-05-12T04:28:36;96994.81;;;11.12;100.00
21817;BME280;13247;47.504;7.382;2023-05-12T04:31:21;97001.28;;;10.80;100.00
21817;BME280;13247;47.504;7.382;2023-05-12T04:34:05;97005.69;;;10.80;100.00
21817;BME280;13247;47.504;7.382;2023-05-12T04:36:50;97008.41;;;11.00;100.00
21817;BME280;13247;47.504;7.382;2023-05-12T04:39:34;97001.38;;;11.00;100.00
21817;BME280;13247;47.504;7.382;2023-05-12T04:42:19;97014.56;;;10.76;100.00
21817;BME280;13247;47.504;7.382;2023-05-12T04:45:04;97013.09;;;10.69;100.00
21817;BME280;13247;47.504;7.382;2023-05-12T04:47:49;97019.25;;;10.68;100.00
21817;BME280;13247;47.504;7.382;2023-05-12T04:50:33;97014.81;;;10.93;100.00
21817;BME280;13247;47.504;7.382;2023-05-12T04:53:18;97025.84;;;11.01;100.00
21817;BME280;13247;47.504;7.382;2023-05-12T04:56:03;97025.81;;;11.24;100.00
21817;BME280;13247;47.504;7.382;2023-05-12T04:58:48;97019.72;;;11.24;100.00
21817;BME280;13247;47.504;7.382;2023-05-12T05:01:32;97026.81;;;11.43;100.00
21817;BME280;13247;47.504;7.382;2023-05-12T05:04:17;97031.78;;;11.51;100.00
21817;BME280;13247;47.504;7.382;2023-05-12T05:07:02;97027.56;;;11.68;100.00
21817;BME280;13247;47.504;7.382;2023-05-12T05:09:46;97021.84;;;11.57;100.00
21817;BME280;13247;47.504;7.382;2023-05-12T05:12:31;97026.41;;;11.75;100.00
21817;BME280;13247;47.504;7.382;2023-05-12T05:15:16;97030.34;;;11.64;100.00
21817;BME280;13247;47.504;7.382;2023-05-12T05:18:01;97036.88;;;11.32;100.00
21817;BME280;13247;47.504;7.382;2023-05-12T05:20:45;97047.59;;;11.28;100.00
21817;BME280;13247;47.504;7.382;2023-05-12T05:23:30;97039.28;;;11.38;100.00
21817;BME280;13247;47.504;7.382;2023-05-12T05:26:14;97038.13;;;11.45;100.00
21817;BME280;13247;47.504;7.382;2023-05-12T05:28:59;97029.03;;;11.75;100.00
21817;BME280;13247;47.504;7.382;2023-05-12T05:31:44;97030.38;;;11.86;100.00
21817;BME280;13247;47.504;7.382;2023-05-12T05:34:28;97032.09;;;11.87;100.00
21817;BME280;13247;47.504;7.382;2023-05-12T05:37:13;97019.22;;;12.01;100.00
21817;BME280;13247;47.504;7.382;2023-05-12T05:39:57;97027.19;;;11.99;100.00
21817;BME280;13247;47.504;7.382;2023-05-12T05:42:42;97039.81;;;11.69;100.00
21817;BME280;13247;47.504;7.382;2023-05-12T05:45:27;97029.81;;;11.99;100.00
21817;BME280;13247;47.504;7.382;2023-05-12T05:48:11;97033.78;;;11.88;100.00
21817;BME280;13247;47.504;7.382;2023-05-12T05:50:56;97030.97;;;11.92;100.00
21817;BME280;13247;47.504;7.382;2023-05-12T05:53:40;97036.75;;;11.80;100.00
21817;BME280;13247;47.504;7.382;2023-05-12T05:56:25;97037.38;;;11.85;100.00
21817;BME280;13247;47.504;7.382;2023-05-12T05:59:10;97041.66;;;11.88;100.00
21817;BME280;13247;47.504;7.382;2023-05-12T06:01:54;97037.56;;;11.80;100.00
21817;BME280;13247;47.504;7.382;2023-05-12T06:04:39;97040.47;;;11.74;100.00
21817;BME280;13247;47.504;7.382;2023-05-12T06:07:24;97036.13;;;11.73;100.00
21817;BME280;13247;47.504;7.382;2023-05-12T06:10:09;97048.53;;;11.47;100.00
21817;BME280;13247;47.504;7.382;2023-05-12T06:12:53;97055.78;;;11.42;100.00
21817;BME280;13247;47.504;7.382;2023-05-12T06:15:38;97045.63;;;11.54;100.00
21817;BME280;13247;47.504;7.382;2023-05-12T06:18:23;97051.38;;;11.64;100.00
21817;BME280;13247;47.504;7.382;2023-05-12T06:21:07;97056.63;;;11.64;100.00
21817;BME280;13247;47.504;7.382;2023-05-12T06:23:53;97050.91;;;11.76;100.00
21817;BME280;13247;47.504;7.382;2023-05-12T06:26:39;97052.09;;;11.89;100.00
21817;BME280;13247;47.504;7.382;2023-05-12T06:29:24;97045.84;;;11.93;100.00
21817;BME280;13247;47.504;7.382;2023-05-12T06:32:09;97049.25;;;12.15;100.00
21817;BME280;13247;47.504;7.382;2023-05-12T06:34:54;97056.09;;;11.99;100.00
21817;BME280;13247;47.504;7.382;2023-05-12T06:37:38;97044.38;;;12.06;100.00
21817;BME280;13247;47.504;7.382;2023-05-12T06:40:23;97055.47;;;11.93;100.00
21817;BME280;13247;47.504;7.382;2023-05-12T06:43:08;97049.97;;;11.99;100.00
21817;BME280;13247;47.504;7.382;2023-05-12T06:45:52;97047.09;;;12.05;100.00
21817;BME280;13247;47.504;7.382;2023-05-12T06:48:37;97060.56;;;11.97;100.00
21817;BME280;13247;47.504;7.382;2023-05-12T06:51:22;97062.97;;;12.02;100.00
21817;BME280;13247;47.504;7.382;2023-05-12T06:54:06;97051.97;;;12.34;100.00
21817;BME280;13247;47.504;7.382;2023-05-12T06:56:51;97048.47;;;12.33;100.00
21817;BME280;13247;47.504;7.382;2023-05-12T06:59:36;97059.06;;;12.12;100.00
21817;BME280;13247;47.504;7.382;2023-05-12T07:02:21;97056.88;;;12.21;100.00
21817;BME280;13247;47.504;7.382;2023-05-12T07:05:05;97045.53;;;12.41;100.00
21817;BME280;13247;47.504;7.382;2023-05-12T07:07:50;97057.66;;;12.63;100.00
21817;BME280;13247;47.504;7.382;2023-05-12T07:10:35;97049.88;;;12.81;100.00
21817;BME280;13247;47.504;7.382;2023-05-12T07:13:21;97054.00;;;12.27;100.00
21817;BME280;13247;47.504;7.382;2023-05-12T07:16:06;97061.09;;;12.25;100.00
21817;BME280;13247;47.504;7.382;2023-05-12T07:18:51;97061.72;;;12.52;100.00
21817;BME280;13247;47.504;7.382;2023-05-12T07:21:36;97048.75;;;12.47;100.00
21817;BME280;13247;47.504;7.382;2023-05-12T07:24:20;97049.41;;;12.32;100.00
21817;BME280;13247;47.504;7.382;2023-05-12T07:27:05;97049.72;;;12.45;100.00
21817;BME280;13247;47.504;7.382;2023-05-12T07:29:50;97047.03;;;12.67;100.00
21817;BME280;13247;47.504;7.382;2023-05-12T07:32:34;97037.91;;;12.74;100.00
21817;BME280;13247;47.504;7.382;2023-05-12T07:35:19;97038.19;;;12.88;100.00
21817;BME280;13247;47.504;7.382;2023-05-12T07:38:04;97047.44;;;12.96;100.00
21817;BME280;13247;47.504;7.382;2023-05-12T07:40:50;97042.53;;;13.07;100.00
21817;BME280;13247;47.504;7.382;2023-05-12T07:43:35;97033.44;;;13.14;100.00
21817;BME280;13247;47.504;7.382;2023-05-12T07:46:19;97037.94;;;13.12;100.00
21817;BME280;13247;47.504;7.382;2023-05-12T07:49:04;97039.94;;;13.26;100.00
21817;BME280;13247;47.504;7.382;2023-05-12T07:51:50;97033.03;;;13.23;100.00
21817;BME280;13247;47.504;7.382;2023-05-12T07:54:35;97029.31;;;13.46;100.00
21817;BME280;13247;47.504;7.382;2023-05-12T07:57:19;97035.38;;;13.29;100.00
21817;BME280;13247;47.504;7.382;2023-05-12T08:00:05;97022.94;;;13.69;100.00
21817;BME280;13247;47.504;7.382;2023-05-12T08:02:50;97027.53;;;13.82;100.00
21817;BME280;13247;47.504;7.382;2023-05-12T08:05:35;97021.09;;;13.88;100.00
21817;BME280;13247;47.504;7.382;2023-05-12T08:08:20;97022.50;;;13.95;100.00
21817;BME280;13247;47.504;7.382;2023-05-12T08:11:05;97019.72;;;13.62;100.00
21817;BME280;13247;47.504;7.382;2023-05-12T08:13:49;97016.31;;;13.79;100.00
21817;BME280;13247;47.504;7.382;2023-05-12T08:16:34;97014.59;;;13.78;100.00
21817;BME280;13247;47.504;7.382;2023-05-12T08:19:18;97015.34;;;13.80;100.00
21817;BME280;13247;47.504;7.382;2023-05-12T08:22:03;97016.53;;;13.74;100.00
21817;BME280;13247;47.504;7.382;2023-05-12T08:24:48;97021.72;;;13.76;100.00
21817;BME280;13247;47.504;7.382;2023-05-12T08:27:33;97020.22;;;13.34;100.00
21817;BME280;13247;47.504;7.382;2023-05-12T08:30:18;97020.16;;;13.72;100.00
21817;BME280;13247;47.504;7.382;2023-05-12T08:33:03;97029.09;;;13.51;100.00
21817;BME280;13247;47.504;7.382;2023-05-12T08:35:48;97021.78;;;13.74;100.00
21817;BME280;13247;47.504;7.382;2023-05-12T08:38:33;97023.31;;;13.61;100.00
21817;BME280;13247;47.504;7.382;2023-05-12T08:41:30;97014.41;;;13.64;100.00
21817;BME280;13247;47.504;7.382;2023-05-12T08:44:20;97025.53;;;13.87;100.00
21817;BME280;13247;47.504;7.382;2023-05-12T08:47:06;97021.59;;;13.96;100.00
21817;BME280;13247;47.504;7.382;2023-05-12T08:50:00;97022.13;;;14.19;100.00
21817;BME280;13247;47.504;7.382;2023-05-12T08:52:45;97027.00;;;13.93;100.00
21817;BME280;13247;47.504;7.382;2023-05-12T08:55:29;97025.00;;;14.15;100.00
21817;BME280;13247;47.504;7.382;2023-05-12T08:58:15;97030.59;;;14.09;100.00
21817;BME280;13247;47.504;7.382;2023-05-12T09:01:00;97030.22;;;13.64;100.00
21817;BME280;13247;47.504;7.382;2023-05-12T09:03:48;97022.66;;;14.09;100.00
21817;BME280;13247;47.504;7.382;2023-05-12T09:06:34;97027.16;;;14.07;100.00
21817;BME280;13247;47.504;7.382;2023-05-12T09:09:20;97025.63;;;14.20;100.00
21817;BME280;13247;47.504;7.382;2023-05-12T09:12:06;97020.22;;;14.23;100.00
21817;BME280;13247;47.504;7.382;2023-05-12T09:15:04;97026.41;;;14.05;100.00
21817;BME280;13247;47.504;7.382;2023-05-12T09:17:49;97024.53;;;14.07;100.00
21817;BME280;13247;47.504;7.382;2023-05-12T09:20:33;97022.78;;;14.42;100.00
21817;BME280;13247;47.504;7.382;2023-05-12T09:23:21;97014.84;;;14.25;100.00
21817;BME280;13247;47.504;7.382;2023-05-12T09:26:09;97024.13;;;14.33;100.00
21817;BME280;13247;47.504;7.382;2023-05-12T09:29:02;97020.53;;;14.17;100.00
21817;BME280;13247;47.504;7.382;2023-05-12T09:31:55;97013.22;;;14.05;100.00
21817;BME280;13247;47.504;7.382;2023-05-12T09:34:42;97016.78;;;14.04;100.00
21817;BME280;13247;47.504;7.382;2023-05-12T09:37:31;97012.06;;;14.45;100.00
21817;BME280;13247;47.504;7.382;2023-05-12T09:40:16;97016.72;;;14.23;100.00
21817;BME280;13247;47.504;7.382;2023-05-12T09:43:01;97018.88;;;14.49;100.00
21817;BME280;13247;47.504;7.382;2023-05-12T09:45:46;97018.63;;;15.03;100.00
21817;BME280;13247;47.504;7.382;2023-05-12T09:48:33;97016.22;;;15.47;100.00
21817;BME280;13247;47.504;7.382;2023-05-12T09:51:17;97006.38;;;15.33;100.00
21817;BME280;13247;47.504;7.382;2023-05-12T09:54:02;97005.75;;;15.13;100.00
21817;BME280;13247;47.504;7.382;2023-05-12T09:56:47;97004.22;;;15.09;100.00
21817;BME280;13247;47.504;7.382;2023-05-12T09:59:34;97011.97;;;14.63;100.00
21817;BME280;13247;47.504;7.382;2023-05-12T10:02:19;97011.34;;;14.58;100.00
21817;BME280;13247;47.504;7.382;2023-05-12T10:05:07;96999.84;;;15.25;100.00
21817;BME280;13247;47.504;7.382;2023-05-12T10:07:56;97001.25;;;15.15;100.00
21817;BME280;13247;47.504;7.382;2023-05-12T10:10:44;96999.16;;;14.22;100.00
21817;BME280;13247;47.504;7.382;2023-05-12T10:13:32;96997.94;;;14.63;100.00
21817;BME280;13247;47.504;7.382;2023-05-12T10:16:18;96991.31;;;15.35;100.00
21817;BME280;13247;47.504;7.382;2023-05-12T10:19:04;96988.25;;;15.58;100.00
21817;BME280;13247;47.504;7.382;2023-05-12T10:21:50;96977.53;;;16.35;100.00
21817;BME280;13247;47.504;7.382;2023-05-12T10:24:34;96980.72;;;16.12;100.00
21817;BME280;13247;47.504;7.382;2023-05-12T10:27:20;96988.47;;;15.23;100.00
21817;BME280;13247;47.504;7.382;2023-05-12T10:30:06;96978.75;;;15.86;100.00
21817;BME280;13247;47.504;7.382;2023-05-12T10:32:51;96978.41;;;16.93;100.00
21817;BME280;13247;47.504;7.382;2023-05-12T10:35:37;96976.63;;;16.36;100.00
21817;BME280;13247;47.504;7.382;2023-05-12T10:38:23;96976.19;;;16.14;100.00
21817;BME280;13247;47.504;7.382;2023-05-12T10:41:09;96968.75;;;15.91;100.00
21817;BME280;13247;47.504;7.382;2023-05-12T10:43:54;96969.13;;;15.99;100.00
21817;BME280;13247;47.504;7.382;2023-05-12T10:46:38;96971.38;;;15.45;100.00
21817;BME280;13247;47.504;7.382;2023-05-12T10:49:31;96958.22;;;15.75;100.00
21817;BME280;13247;47.504;7.382;2023-05-12T10:52:19;96957.44;;;16.46;100.00
21817;BME280;13247;47.504;7.382;2023-05-12T10:55:04;96958.16;;;15.91;100.00
21817;BME280;13247;47.504;7.382;2023-05-12T10:58:04;96952.78;;;16.22;100.00
21817;BME280;13247;47.504;7.382;2023-05-12T11:00:49;96951.97;;;16.92;100.00
21817;BME280;13247;47.504;7.382;2023-05-12T11:03:34;96955.03;;;17.00;100.00
21817;BME280;13247;47.504;7.382;2023-05-12T11:06:19;96948.28;;;17.49;100.00
21817;BME280;13247;47.504;7.382;2023-05-12T11:09:04;96950.06;;;18.41;100.00
21817;BME280;13247;47.504;7.382;2023-05-12T11:11:50;96946.28;;;18.19;97.52
21817;BME280;13247;47.504;7.382;2023-05-12T11:14:37;96955.28;;;18.80;94.21
21817;BME280;13247;47.504;7.382;2023-05-12T11:17:22;96948.97;;;18.31;96.50
21817;BME280;13247;47.504;7.382;2023-05-12T11:20:07;96959.78;;;17.36;100.00
21817;BME280;13247;47.504;7.382;2023-05-12T11:22:53;96949.41;;;17.86;96.98
21817;BME280;13247;47.504;7.382;2023-05-12T11:25:38;96949.97;;;18.68;92.53
21817;BME280;13247;47.504;7.382;2023-05-12T11:28:23;96953.78;;;17.60;94.48
21817;BME280;13247;47.504;7.382;2023-05-12T11:31:08;96943.91;;;18.01;90.66
21817;BME280;13247;47.504;7.382;2023-05-12T11:34:05;96951.53;;;17.54;100.00
21817;BME280;13247;47.504;7.382;2023-05-12T11:36:52;96959.09;;;16.63;100.00
21817;BME280;13247;47.504;7.382;2023-05-12T11:39:37;96957.22;;;16.21;100.00
21817;BME280;13247;47.504;7.382;2023-05-12T11:42:22;96959.47;;;15.84;100.00
21817;BME280;13247;47.504;7.382;2023-05-12T11:45:17;96953.69;;;16.07;100.00
21817;BME280;13247;47.504;7.382;2023-05-12T11:48:10;96954.25;;;15.82;100.00
21817;BME280;13247;47.504;7.382;2023-05-12T11:50:55;96952.66;;;15.80;100.00
21817;BME280;13247;47.504;7.382;2023-05-12T11:53:40;96963.66;;;15.72;100.00
21817;BME280;13247;47.504;7.382;2023-05-12T11:56:25;96963.16;;;15.81;100.00
21817;BME280;13247;47.504;7.382;2023-05-12T11:59:10;96957.59;;;16.15;100.00
21817;BME280;13247;47.504;7.382;2023-05-12T12:01:55;96964.56;;;16.16;100.00
21817;BME280;13247;47.504;7.382;2023-05-12T12:04:40;96957.28;;;16.20;100.00
21817;BME280;13247;47.504;7.382;2023-05-12T12:10:16;96959.09;;;16.77;100.00
21817;BME280;13247;47.504;7.382;2023-05-12T12:13:01;96963.34;;;16.66;100.00
21817;BME280;13247;47.504;7.382;2023-05-12T12:15:45;96963.25;;;16.53;100.00
21817;BME280;13247;47.504;7.382;2023-05-12T12:18:30;96954.06;;;16.73;100.00
21817;BME280;13247;47.504;7.382;2023-05-12T12:21:14;96960.88;;;16.63;100.00
21817;BME280;13247;47.504;7.382;2023-05-12T12:23:59;96950.47;;;17.02;100.00
21817;BME280;13247;47.504;7.382;2023-05-12T12:26:43;96952.81;;;17.06;100.00
21817;BME280;13247;47.504;7.382;2023-05-12T12:29:28;96947.69;;;17.32;100.00
21817;BME280;13247;47.504;7.382;2023-05-12T12:32:12;96947.34;;;17.77;100.00
21817;BME280;13247;47.504;7.382;2023-05-12T12:34:57;96937.47;;;17.66;100.00
21817;BME280;13247;47.504;7.382;2023-05-12T12:37:45;96936.00;;;17.48;100.00
21817;BME280;13247;47.504;7.382;2023-05-12T12:40:35;96933.94;;;17.39;100.00
21817;BME280;13247;47.504;7.382;2023-05-12T12:43:19;96937.16;;;16.89;100.00
21817;BME280;13247;47.504;7.382;2023-05-12T12:46:04;96931.59;;;16.66;100.00
21817;BME280;13247;47.504;7.382;2023-05-12T12:48:49;96932.91;;;16.87;100.00
21817;BME280;13247;47.504;7.382;2023-05-12T12:51:34;96937.16;;;16.75;100.00
21817;BME280;13247;47.504;7.382;2023-05-12T12:54:19;96928.00;;;17.21;100.00
21817;BME280;13247;47.504;7.382;2023-05-12T12:57:04;96932.00;;;17.55;100.00
21817;BME280;13247;47.504;7.382;2023-05-12T12:59:49;96926.16;;;17.50;92.76
21817;BME280;13247;47.504;7.382;2023-05-12T13:02:34;96918.47;;;17.99;93.62
21817;BME280;13247;47.504;7.382;2023-05-12T13:05:18;96922.06;;;18.11;97.22
21817;BME280;13247;47.504;7.382;2023-05-12T13:08:03;96920.34;;;17.84;100.00
21817;BME280;13247;47.504;7.382;2023-05-12T13:10:48;96921.66;;;17.65;100.00
21817;BME280;13247;47.504;7.382;2023-05-12T13:13:32;96916.66;;;17.60;100.00
21817;BME280;13247;47.504;7.382;2023-05-12T13:16:17;96912.19;;;18.13;100.00
21817;BME280;13247;47.504;7.382;2023-05-12T13:19:02;96917.53;;;18.25;100.00
21817;BME280;13247;47.504;7.382;2023-05-12T13:21:47;96916.78;;;18.11;100.00
21817;BME280;13247;47.504;7.382;2023-05-12T13:24:32;96915.44;;;17.52;100.00
21817;BME280;13247;47.504;7.382;2023-05-12T13:27:17;96915.22;;;17.81;100.00
21817;BME280;13247;47.504;7.382;2023-05-12T13:30:02;96916.25;;;17.66;100.00
21817;BME280;13247;47.504;7.382;2023-05-12T13:32:48;96916.19;;;17.13;100.00
21817;BME280;13247;47.504;7.382;2023-05-12T13:35:34;96910.56;;;16.91;100.00
21817;BME280;13247;47.504;7.382;2023-05-12T13:38:19;96910.28;;;16.81;100.00
21817;BME280;13247;47.504;7.382;2023-05-12T13:41:04;96912.91;;;17.36;100.00
21817;BME280;13247;47.504;7.382;2023-05-12T13:43:48;96903.72;;;17.68;94.91
21817;BME280;13247;47.504;7.382;2023-05-12T13:46:33;96903.19;;;17.63;98.52
21817;BME280;13247;47.504;7.382;2023-05-12T13:49:18;96900.16;;;17.82;92.28
21817;BME280;13247;47.504;7.382;2023-05-12T13:52:03;96897.41;;;17.83;89.30
21817;BME280;13247;47.504;7.382;2023-05-12T13:54:47;96906.47;;;18.31;91.53
21817;BME280;13247;47.504;7.382;2023-05-12T13:57:32;96899.34;;;18.07;86.46
21817;BME280;13247;47.504;7.382;2023-05-12T14:00:17;96893.31;;;18.42;88.74
21817;BME280;13247;47.504;7.382;2023-05-12T14:03:02;96890.66;;;18.30;89.88
21817;BME280;13247;47.504;7.382;2023-05-12T14:05:46;96890.91;;;18.27;87.47
21817;BME280;13247;47.504;7.382;2023-05-12T14:08:31;96882.13;;;19.00;84.34
21817;BME280;13247;47.504;7.382;2023-05-12T14:11:16;96881.72;;;18.94;89.21
21817;BME280;13247;47.504;7.382;2023-05-12T14:14:01;96889.06;;;18.27;88.14
21817;BME280;13247;47.504;7.382;2023-05-12T14:16:47;96890.28;;;17.71;94.48
21817;BME280;13247;47.504;7.382;2023-05-12T14:19:31;96892.03;;;17.58;92.18
21817;BME280;13247;47.504;7.382;2023-05-12T14:22:16;96887.84;;;17.81;92.99
21817;BME280;13247;47.504;7.382;2023-05-12T14:25:00;96895.91;;;17.79;86.38
21817;BME280;13247;47.504;7.382;2023-05-12T14:27:45;96892.66;;;17.88;88.78